createdAt,value
2022-12-25T00:00:32.703Z,6.85
2022-12-25T00:02:59.447Z,6.82
2022-12-25T00:05:26.249Z,6.85
2022-12-25T00:07:53.033Z,6.81
2022-12-25T00:10:19.719Z,6.75
2022-12-25T00:12:46.278Z,6.75
2022-12-25T00:15:12.888Z,6.73
2022-12-25T00:17:39.406Z,6.79
2022-12-25T00:20:06.903Z,6.76
2022-12-25T00:22:33.560Z,6.71
2022-12-25T00:25:00.141Z,6.69
2022-12-25T00:27:26.715Z,6.66
2022-12-25T00:29:53.288Z,6.60
2022-12-25T00:32:19.809Z,6.60
2022-12-25T00:34:47.775Z,6.52
2022-12-25T00:37:14.339Z,6.50
2022-12-25T00:39:40.937Z,6.43
2022-12-25T00:42:19.564Z,6.42
2022-12-25T00:44:50.662Z,6.29
2022-12-25T00:47:18.196Z,6.27
2022-12-25T00:49:45.250Z,6.33
2022-12-25T00:52:11.918Z,6.30
2022-12-25T00:54:38.554Z,6.13
2022-12-25T00:57:05.131Z,6.17
2022-12-25T00:59:33.302Z,6.21
2022-12-25T01:02:19.949Z,6.16
2022-12-25T01:04:46.637Z,6.20
2022-12-25T01:07:13.260Z,6.20
2022-12-25T01:09:58.629Z,6.12
2022-12-25T01:12:25.213Z,6.05
2022-12-25T01:14:51.731Z,6.05
2022-12-25T01:17:18.327Z,6.09
2022-12-25T01:19:44.996Z,6.01
2022-12-25T01:22:11.790Z,5.94
2022-12-25T01:24:38.353Z,5.85
2022-12-25T01:27:05.067Z,5.93
2022-12-25T01:29:31.700Z,5.88
2022-12-25T01:31:58.283Z,5.81
2022-12-25T01:34:24.818Z,5.73
2022-12-25T01:36:51.341Z,5.75
2022-12-25T01:39:17.866Z,5.74
2022-12-25T01:41:44.563Z,5.77
2022-12-25T01:44:13.933Z,5.81
2022-12-25T01:46:40.762Z,5.72
2022-12-25T01:49:21.001Z,5.74
2022-12-25T01:51:52.393Z,5.59
2022-12-25T01:54:26.149Z,5.72
2022-12-25T01:56:55.355Z,5.62
2022-12-25T01:59:26.072Z,5.62
2022-12-25T02:01:52.855Z,5.63
2022-12-25T02:04:38.876Z,5.57
2022-12-25T02:07:17.567Z,5.51
2022-12-25T02:09:45.298Z,5.50
2022-12-25T02:12:25.138Z,5.45
2022-12-25T02:14:59.652Z,5.24
2022-12-25T02:17:44.614Z,5.28
2022-12-25T02:20:48.929Z,5.28
2022-12-25T02:23:52.936Z,5.18
2022-12-25T02:26:55.535Z,5.10
2022-12-25T02:29:47.797Z,5.10
2022-12-25T02:32:30.443Z,4.88
2022-12-25T02:35:11.866Z,4.78
2022-12-25T02:37:45.860Z,4.73
2022-12-25T02:40:21.284Z,4.78
2022-12-25T02:43:19.989Z,4.70
2022-12-25T02:46:14.066Z,4.69
2022-12-25T02:49:22.156Z,4.78
2022-12-25T02:52:14.696Z,4.89
2022-12-25T02:55:04.783Z,4.94
2022-12-25T02:57:56.980Z,4.81
2022-12-25T03:00:41.901Z,4.83
2022-12-25T03:03:29.372Z,4.85
2022-12-25T03:06:18.304Z,4.91
2022-12-25T03:08:48.718Z,4.98
2022-12-25T03:11:33.398Z,5.08
2022-12-25T03:14:24.607Z,4.96
2022-12-25T03:16:55.377Z,5.04
2022-12-25T03:19:44.920Z,5.15
2022-12-25T03:22:42.163Z,5.10
2022-12-25T03:25:28.421Z,5.03
2022-12-25T03:27:56.439Z,5.18
2022-12-25T03:30:45.103Z,5.17
2022-12-25T03:33:43.857Z,5.16
2022-12-25T03:36:24.726Z,5.17
2022-12-25T03:39:18.355Z,5.20
2022-12-25T03:42:08.705Z,5.20
2022-12-25T03:45:07.349Z,5.20
2022-12-25T03:48:06.637Z,5.22
2022-12-25T03:51:01.547Z,5.21
2022-12-25T03:53:52.653Z,5.31
2022-12-25T03:56:39.101Z,5.29
2022-12-25T03:59:24.529Z,5.27
2022-12-25T04:02:10.082Z,5.13
2022-12-25T04:04:55.538Z,5.25
2022-12-25T04:07:40.574Z,5.23
2022-12-25T04:10:26.589Z,5.16
2022-12-25T04:13:12.001Z,5.15
2022-12-25T04:15:56.748Z,5.04
2022-12-25T04:18:41.991Z,4.99
2022-12-25T04:21:27.378Z,5.05
2022-12-25T04:24:12.176Z,5.02
2022-12-25T04:26:57.209Z,5.07
2022-12-25T04:29:42.603Z,5.08
2022-12-25T04:32:27.568Z,5.07
2022-12-25T04:35:12.355Z,5.02
2022-12-25T04:37:39.050Z,4.97
2022-12-25T04:40:06.473Z,4.98
2022-12-25T04:42:32.917Z,4.97
2022-12-25T04:44:59.429Z,4.92
2022-12-25T04:47:25.956Z,4.85
2022-12-25T04:49:52.582Z,4.86
2022-12-25T04:52:19.161Z,4.89
2022-12-25T04:54:45.725Z,4.93
2022-12-25T04:57:12.240Z,4.88
2022-12-25T04:59:38.816Z,4.90
2022-12-25T05:02:05.443Z,4.89
2022-12-25T05:04:32.135Z,4.87
2022-12-25T05:06:58.751Z,4.82
2022-12-25T05:09:26.519Z,4.85
2022-12-25T05:11:53.065Z,4.70
2022-12-25T05:14:19.651Z,4.78
2022-12-25T05:16:46.399Z,4.70
2022-12-25T05:19:13.195Z,4.61
2022-12-25T05:21:39.688Z,4.62
2022-12-25T05:24:06.567Z,4.59
2022-12-25T05:26:33.166Z,4.53
2022-12-25T05:29:00.131Z,4.52
2022-12-25T05:31:26.766Z,4.43
2022-12-25T05:33:53.433Z,4.37
2022-12-25T05:36:20.011Z,4.34
2022-12-25T05:38:46.826Z,4.26
2022-12-25T05:41:13.365Z,4.33
2022-12-25T05:43:39.938Z,4.33
2022-12-25T05:46:08.559Z,4.33
2022-12-25T05:48:37.121Z,4.31
2022-12-25T05:51:08.943Z,4.19
2022-12-25T05:53:36.102Z,4.24
2022-12-25T05:56:04.700Z,4.27
2022-12-25T05:58:32.677Z,4.20
2022-12-25T06:00:59.655Z,4.19
2022-12-25T06:03:26.600Z,4.19
2022-12-25T06:05:53.629Z,4.16
2022-12-25T06:08:20.324Z,4.10
2022-12-25T06:10:47.446Z,4.08
2022-12-25T06:13:14.036Z,4.11
2022-12-25T06:15:43.496Z,4.14
2022-12-25T06:18:10.863Z,4.14
2022-12-25T06:20:40.751Z,4.13
2022-12-25T06:23:07.402Z,4.14
2022-12-25T06:25:33.970Z,4.23
2022-12-25T06:28:00.568Z,4.24
2022-12-25T06:30:27.104Z,4.30
2022-12-25T06:32:53.662Z,4.35
2022-12-25T06:35:20.199Z,4.45
2022-12-25T06:37:46.768Z,4.46
2022-12-25T06:40:13.634Z,4.52
2022-12-25T06:42:40.318Z,4.65
2022-12-25T06:45:07.368Z,4.67
2022-12-25T06:47:33.975Z,4.63
2022-12-25T06:50:00.692Z,4.67
2022-12-25T06:52:27.291Z,4.62
2022-12-25T06:54:53.886Z,4.66
2022-12-25T06:57:20.516Z,4.65
2022-12-25T06:59:52.958Z,4.67
2022-12-25T07:02:23.383Z,4.68
2022-12-25T07:04:50.210Z,4.70
2022-12-25T07:07:16.843Z,4.73
2022-12-25T07:09:43.551Z,4.81
2022-12-25T07:12:12.789Z,4.88
2022-12-25T07:14:39.629Z,4.94
2022-12-25T07:17:06.252Z,5.00
2022-12-25T07:19:32.816Z,5.06
2022-12-25T07:21:59.412Z,5.09
2022-12-25T07:24:26.034Z,5.18
2022-12-25T07:26:52.658Z,5.18
2022-12-25T07:29:19.804Z,5.32
2022-12-25T07:31:46.857Z,5.39
2022-12-25T07:34:13.478Z,5.44
2022-12-25T07:36:40.045Z,5.49
2022-12-25T07:39:06.602Z,5.57
2022-12-25T07:41:33.247Z,5.64
2022-12-25T07:43:59.737Z,5.69
2022-12-25T07:46:26.999Z,5.76
2022-12-25T07:48:53.672Z,5.82
2022-12-25T07:51:20.267Z,5.87
2022-12-25T07:53:46.856Z,6.01
2022-12-25T07:56:18.644Z,6.06
2022-12-25T07:58:46.027Z,6.13
2022-12-25T08:01:12.559Z,6.20
2022-12-25T08:03:39.686Z,6.25
2022-12-25T08:06:08.878Z,6.32
2022-12-25T08:08:36.716Z,6.44
2022-12-25T08:11:03.429Z,6.52
2022-12-25T08:13:31.908Z,6.59
2022-12-25T08:16:03.030Z,6.64
2022-12-25T08:18:31.019Z,6.70
2022-12-25T08:21:02.758Z,6.80
2022-12-25T08:23:29.305Z,6.87
2022-12-25T08:26:05.471Z,6.94
2022-12-25T08:28:33.982Z,7.03
2022-12-25T08:31:06.542Z,7.15
2022-12-25T08:33:33.175Z,7.24
2022-12-25T08:36:05.143Z,7.30
2022-12-25T08:38:31.769Z,7.39
2022-12-25T08:40:58.350Z,7.43
2022-12-25T08:43:24.971Z,7.59
2022-12-25T08:45:51.542Z,7.68
2022-12-25T08:48:18.638Z,7.88
2022-12-25T08:50:53.080Z,7.94
2022-12-25T08:53:20.978Z,8.07
2022-12-25T08:55:47.979Z,8.15
2022-12-25T08:58:14.904Z,8.38
2022-12-25T09:00:41.616Z,8.88
2022-12-25T09:03:08.521Z,11.19
2022-12-25T09:05:38.577Z,14.46
2022-12-25T09:08:05.288Z,17.13
2022-12-25T09:10:36.393Z,18.80
2022-12-25T09:13:03.285Z,19.93
2022-12-25T09:15:30.364Z,19.40
2022-12-25T09:17:56.942Z,19.83
2022-12-25T09:20:23.488Z,19.30
2022-12-25T09:22:50.180Z,19.04
2022-12-25T09:25:16.819Z,17.12
2022-12-25T09:27:43.864Z,16.08
2022-12-25T09:30:11.254Z,15.04
2022-12-25T09:32:40.362Z,14.44
2022-12-25T09:35:10.450Z,13.44
2022-12-25T09:37:37.033Z,12.93
2022-12-25T09:40:04.032Z,13.00
2022-12-25T09:42:32.479Z,13.04
2022-12-25T09:45:12.375Z,13.15
2022-12-25T09:47:41.352Z,13.21
2022-12-25T09:50:24.405Z,13.02
2022-12-25T09:52:58.610Z,13.25
2022-12-25T09:55:29.326Z,13.34
2022-12-25T09:58:01.457Z,13.37
2022-12-25T10:00:40.503Z,13.57
2022-12-25T10:03:42.569Z,13.59
2022-12-25T10:06:20.931Z,13.51
2022-12-25T10:09:03.014Z,13.56
2022-12-25T10:11:59.260Z,13.89
2022-12-25T10:14:33.505Z,14.05
2022-12-25T10:17:32.128Z,13.84
2022-12-25T10:20:08.479Z,13.67
2022-12-25T10:22:40.436Z,13.84
2022-12-25T10:25:15.637Z,14.09
2022-12-25T10:27:43.120Z,14.34
2022-12-25T10:30:21.813Z,14.38
2022-12-25T10:32:49.878Z,14.38
2022-12-25T10:35:22.159Z,14.43
2022-12-25T10:38:12.413Z,14.46
2022-12-25T10:40:51.809Z,14.44
2022-12-25T10:43:24.821Z,14.46
2022-12-25T10:45:51.719Z,14.44
2022-12-25T10:48:42.292Z,14.34
2022-12-25T10:51:09.083Z,14.43
2022-12-25T10:53:43.277Z,14.47
2022-12-25T10:56:27.814Z,14.50
2022-12-25T10:59:07.565Z,14.67
2022-12-25T11:01:34.342Z,14.66
2022-12-25T11:04:01.084Z,14.75
2022-12-25T11:06:30.966Z,14.86
2022-12-25T11:08:59.884Z,15.04
2022-12-25T11:11:28.167Z,15.25
2022-12-25T11:13:58.923Z,15.34
2022-12-25T11:16:38.482Z,15.57
2022-12-25T11:19:24.773Z,15.94
2022-12-25T11:21:53.953Z,15.95
2022-12-25T11:24:25.207Z,15.86
2022-12-25T11:26:57.815Z,15.77
2022-12-25T11:29:45.039Z,15.73
2022-12-25T11:32:29.684Z,15.68
2022-12-25T11:34:58.126Z,15.61
2022-12-25T11:37:38.614Z,15.51
2022-12-25T11:40:06.919Z,15.55
2022-12-25T11:42:36.692Z,15.61
2022-12-25T11:45:14.993Z,15.82
2022-12-25T11:48:14.196Z,15.99
2022-12-25T11:50:45.479Z,15.91
2022-12-25T11:53:31.586Z,15.92
2022-12-25T11:56:06.169Z,15.97
2022-12-25T11:58:44.711Z,15.88
2022-12-25T12:01:44.734Z,15.78
2022-12-25T12:04:29.949Z,15.82
2022-12-25T12:07:04.606Z,15.83
2022-12-25T12:09:33.896Z,15.94
2022-12-25T12:12:03.490Z,16.08
2022-12-25T12:15:06.063Z,16.19
2022-12-25T12:17:32.918Z,16.24
2022-12-25T12:20:11.228Z,16.32
2022-12-25T12:22:37.998Z,16.29
2022-12-25T12:25:08.028Z,16.33
2022-12-25T12:27:40.699Z,16.16
2022-12-25T12:30:23.926Z,16.05
2022-12-25T12:32:56.088Z,16.08
2022-12-25T12:35:34.252Z,16.13
2022-12-25T12:38:08.016Z,16.22
2022-12-25T12:40:41.891Z,16.27
2022-12-25T12:43:28.683Z,16.31
2022-12-25T12:46:07.129Z,16.39
2022-12-25T12:48:42.838Z,16.37
2022-12-25T12:51:15.453Z,16.24
2022-12-25T12:53:43.065Z,16.26
2022-12-25T12:56:16.423Z,16.31
2022-12-25T12:58:49.868Z,16.36
2022-12-25T13:01:19.263Z,16.27
2022-12-25T13:04:04.455Z,16.23
2022-12-25T13:06:41.613Z,16.16
2022-12-25T13:09:10.867Z,16.09
2022-12-25T13:11:43.168Z,16.16
2022-12-25T13:14:16.939Z,16.25
2022-12-25T13:16:46.555Z,16.15
2022-12-25T13:19:15.040Z,16.13
2022-12-25T13:21:58.995Z,16.22
2022-12-25T13:24:30.809Z,16.12
2022-12-25T13:26:58.991Z,16.08
2022-12-25T13:29:28.567Z,16.07
2022-12-25T13:31:55.527Z,15.96
2022-12-25T13:34:32.463Z,15.99
2022-12-25T13:37:10.317Z,15.80
2022-12-25T13:39:46.078Z,15.64
2022-12-25T13:42:17.213Z,15.48
2022-12-25T13:44:48.062Z,15.40
2022-12-25T13:47:30.683Z,15.31
2022-12-25T13:49:59.432Z,15.13
2022-12-25T13:52:37.340Z,14.94
2022-12-25T13:55:27.505Z,14.83
2022-12-25T13:58:03.777Z,14.71
2022-12-25T14:00:39.737Z,14.57
2022-12-25T14:03:08.582Z,14.52
2022-12-25T14:05:42.899Z,14.41
2022-12-25T14:08:21.947Z,14.30
2022-12-25T14:10:50.659Z,14.28
2022-12-25T14:13:20.077Z,14.24
2022-12-25T14:15:48.584Z,14.06
2022-12-25T14:18:17.328Z,13.96
2022-12-25T14:21:01.159Z,13.93
2022-12-25T14:23:40.694Z,13.85
2022-12-25T14:26:07.602Z,13.96
2022-12-25T14:28:34.545Z,13.87
2022-12-25T14:31:03.506Z,13.83
2022-12-25T14:33:38.238Z,13.82
2022-12-25T14:36:06.700Z,13.68
2022-12-25T14:38:38.123Z,13.54
2022-12-25T14:41:21.146Z,13.37
2022-12-25T14:43:55.463Z,13.25
2022-12-25T14:46:27.557Z,13.21
2022-12-25T14:49:05.701Z,13.14
2022-12-25T14:51:35.368Z,13.03
2022-12-25T14:54:04.373Z,12.90
2022-12-25T14:56:39.254Z,12.65
2022-12-25T14:59:07.769Z,12.58
2022-12-25T15:01:40.330Z,12.42
2022-12-25T15:04:10.066Z,12.33
2022-12-25T15:06:39.853Z,12.21
2022-12-25T15:09:14.857Z,12.07
2022-12-25T15:11:41.467Z,11.80
2022-12-25T15:14:07.993Z,11.65
2022-12-25T15:16:42.845Z,11.43
2022-12-25T15:19:19.252Z,11.24
2022-12-25T15:21:48.434Z,11.18
2022-12-25T15:24:15.473Z,11.05
2022-12-25T15:26:42.381Z,10.99
2022-12-25T15:29:09.076Z,10.93
2022-12-25T15:31:38.816Z,10.68
2022-12-25T15:34:15.595Z,10.57
2022-12-25T15:36:42.250Z,10.31
2022-12-25T15:39:08.787Z,10.11
2022-12-25T15:41:56.606Z,9.98
2022-12-25T15:44:24.071Z,9.94
2022-12-25T15:46:51.159Z,9.69
2022-12-25T15:49:18.204Z,9.52
2022-12-25T15:51:45.910Z,9.46
2022-12-25T15:54:12.587Z,9.43
2022-12-25T15:56:46.888Z,9.36
2022-12-25T15:59:15.884Z,9.28
2022-12-25T16:01:47.441Z,9.26
2022-12-25T16:04:14.076Z,9.07
2022-12-25T16:06:40.833Z,8.98
2022-12-25T16:09:07.441Z,8.83
2022-12-25T16:11:34.155Z,8.82
2022-12-25T16:14:00.752Z,8.66
2022-12-25T16:16:27.389Z,8.56
2022-12-25T16:18:53.947Z,8.46
2022-12-25T16:21:22.047Z,8.35
2022-12-25T16:23:48.684Z,8.20
2022-12-25T16:26:15.484Z,8.11
2022-12-25T16:28:42.272Z,7.98
2022-12-25T16:31:09.032Z,7.90
2022-12-25T16:33:35.682Z,7.84
2022-12-25T16:36:02.281Z,7.91
2022-12-25T16:38:28.921Z,7.94
2022-12-25T16:40:58.179Z,7.63
2022-12-25T16:43:25.230Z,7.67
2022-12-25T16:45:52.353Z,7.56
2022-12-25T16:48:19.297Z,7.64
2022-12-25T16:50:46.184Z,7.52
2022-12-25T16:53:12.746Z,7.33
2022-12-25T16:55:42.041Z,7.20
2022-12-25T16:58:08.675Z,7.16
2022-12-25T17:00:35.423Z,7.15
2022-12-25T17:03:02.251Z,7.14
2022-12-25T17:05:29.156Z,7.19
2022-12-25T17:07:55.808Z,7.22
2022-12-25T17:10:22.842Z,7.13
2022-12-25T17:12:49.646Z,7.05
2022-12-25T17:15:17.234Z,7.06
2022-12-25T17:17:44.220Z,7.08
2022-12-25T17:20:11.285Z,7.12
2022-12-25T17:22:37.905Z,7.07
2022-12-25T17:25:04.855Z,7.12
2022-12-25T17:27:31.509Z,7.25
2022-12-25T17:29:58.123Z,7.30
2022-12-25T17:32:24.733Z,7.27
2022-12-25T17:34:51.485Z,7.16
2022-12-25T17:37:18.046Z,7.25
2022-12-25T17:39:44.845Z,7.29
2022-12-25T17:42:11.415Z,7.28
2022-12-25T17:44:38.013Z,7.39
2022-12-25T17:47:04.790Z,7.44
2022-12-25T17:49:31.701Z,7.50
2022-12-25T17:51:58.384Z,7.48
2022-12-25T17:54:24.993Z,7.33
2022-12-25T17:56:51.531Z,7.28
2022-12-25T17:59:18.689Z,7.30
2022-12-25T18:01:46.932Z,7.37
2022-12-25T18:04:13.889Z,7.22
2022-12-25T18:06:40.627Z,7.27
2022-12-25T18:09:07.404Z,7.37
2022-12-25T18:11:37.642Z,7.36
2022-12-25T18:14:06.113Z,7.19
2022-12-25T18:16:35.633Z,7.07
2022-12-25T18:19:02.898Z,6.91
2022-12-25T18:21:29.701Z,6.80
2022-12-25T18:23:56.620Z,6.74
2022-12-25T18:26:23.503Z,6.84
2022-12-25T18:28:51.035Z,6.83
2022-12-25T18:31:20.692Z,6.91
2022-12-25T18:33:47.963Z,6.89
2022-12-25T18:36:17.336Z,6.91
2022-12-25T18:38:43.995Z,6.97
2022-12-25T18:41:11.847Z,6.97
2022-12-25T18:43:53.332Z,7.09
2022-12-25T18:46:24.707Z,7.12
2022-12-25T18:48:52.127Z,7.08
2022-12-25T18:51:18.944Z,7.16
2022-12-25T18:53:45.600Z,7.02
2022-12-25T18:56:17.891Z,6.86
2022-12-25T18:58:45.361Z,6.83
2022-12-25T19:01:13.346Z,6.86
2022-12-25T19:03:40.092Z,6.78
2022-12-25T19:06:07.058Z,6.85
2022-12-25T19:08:33.619Z,6.88
2022-12-25T19:11:00.207Z,6.90
2022-12-25T19:13:26.822Z,6.96
2022-12-25T19:15:58.399Z,6.95
2022-12-25T19:18:25.358Z,6.86
2022-12-25T19:20:51.905Z,6.86
2022-12-25T19:23:18.465Z,6.79
2022-12-25T19:25:45.616Z,6.77
2022-12-25T19:28:12.472Z,6.48
2022-12-25T19:30:39.047Z,6.65
2022-12-25T19:33:07.376Z,6.60
2022-12-25T19:35:39.430Z,6.61
2022-12-25T19:38:05.993Z,6.41
2022-12-25T19:40:36.878Z,6.49
2022-12-25T19:43:03.614Z,6.45
2022-12-25T19:45:30.334Z,6.54
2022-12-25T19:47:58.189Z,6.43
2022-12-25T19:50:28.685Z,6.59
2022-12-25T19:52:56.018Z,6.49
2022-12-25T19:55:22.597Z,6.37
2022-12-25T19:57:49.738Z,6.14
2022-12-25T20:00:16.716Z,6.11
2022-12-25T20:02:44.758Z,6.07
2022-12-25T20:05:11.952Z,5.96
2022-12-25T20:07:38.896Z,5.96
2022-12-25T20:10:06.075Z,5.89
2022-12-25T20:12:32.912Z,5.93
2022-12-25T20:14:59.548Z,5.95
2022-12-25T20:17:26.738Z,5.81
2022-12-25T20:19:53.899Z,5.74
2022-12-25T20:22:22.082Z,5.63
2022-12-25T20:24:51.804Z,5.79
2022-12-25T20:27:18.636Z,5.72
2022-12-25T20:29:45.455Z,5.59
2022-12-25T20:32:12.228Z,5.57
2022-12-25T20:34:39.012Z,5.65
2022-12-25T20:37:05.719Z,5.67
2022-12-25T20:39:32.557Z,5.52
2022-12-25T20:41:59.265Z,5.52
2022-12-25T20:44:26.708Z,5.51
2022-12-25T20:46:53.253Z,5.30
2022-12-25T20:49:19.841Z,5.27
2022-12-25T20:51:46.416Z,5.33
2022-12-25T20:54:14.961Z,5.25
2022-12-25T20:56:41.673Z,5.26
2022-12-25T20:59:09.385Z,5.20
2022-12-25T21:01:36.051Z,5.15
2022-12-25T21:04:02.876Z,5.11
2022-12-25T21:06:29.647Z,5.04
2022-12-25T21:08:56.605Z,4.89
2022-12-25T21:11:23.802Z,4.96
2022-12-25T21:13:50.602Z,4.69
2022-12-25T21:16:22.298Z,4.66
2022-12-25T21:18:52.254Z,4.57
2022-12-25T21:21:20.450Z,4.44
2022-12-25T21:23:47.151Z,4.28
2022-12-25T21:26:21.011Z,4.21
2022-12-25T21:28:48.648Z,4.19
2022-12-25T21:31:15.325Z,4.19
2022-12-25T21:33:51.673Z,4.28
2022-12-25T21:36:30.670Z,4.14
2022-12-25T21:39:03.475Z,3.93
2022-12-25T21:41:31.469Z,4.04
2022-12-25T21:43:58.993Z,4.09
2022-12-25T21:46:26.559Z,4.17
2022-12-25T21:48:53.986Z,4.16
2022-12-25T21:51:39.953Z,4.11
2022-12-25T21:54:07.246Z,4.01
2022-12-25T21:56:39.785Z,3.87
2022-12-25T21:59:12.287Z,3.80
2022-12-25T22:01:39.184Z,3.89
2022-12-25T22:04:07.737Z,3.89
2022-12-25T22:06:52.825Z,3.78
2022-12-25T22:09:20.760Z,3.69
2022-12-25T22:12:06.191Z,3.64
2022-12-25T22:14:54.925Z,3.65
2022-12-25T22:17:48.382Z,3.62
2022-12-25T22:20:19.097Z,3.70
2022-12-25T22:22:45.656Z,3.66
2022-12-25T22:25:12.872Z,3.61
2022-12-25T22:27:41.331Z,3.56
2022-12-25T22:30:11.754Z,3.51
2022-12-25T22:32:39.133Z,3.40
2022-12-25T22:35:06.651Z,3.55
2022-12-25T22:37:33.537Z,3.47
2022-12-25T22:40:02.227Z,3.70
2022-12-25T22:42:29.005Z,3.75
2022-12-25T22:44:55.581Z,3.70
2022-12-25T22:47:22.124Z,3.70
2022-12-25T22:49:49.289Z,3.74
2022-12-25T22:52:15.873Z,3.73
2022-12-25T22:54:42.412Z,3.71
2022-12-25T22:57:09.019Z,3.66
2022-12-25T22:59:35.617Z,3.70
2022-12-25T23:02:02.312Z,3.57
2022-12-25T23:04:29.374Z,3.40
2022-12-25T23:06:56.446Z,3.32
2022-12-25T23:09:27.659Z,3.32
2022-12-25T23:11:56.500Z,3.27
2022-12-25T23:14:39.164Z,3.27
2022-12-25T23:17:31.558Z,3.21
2022-12-25T23:20:18.528Z,3.17
2022-12-25T23:23:03.909Z,3.14
2022-12-25T23:25:49.025Z,3.11
2022-12-25T23:28:35.694Z,3.07
2022-12-25T23:31:02.316Z,2.97
2022-12-25T23:33:28.957Z,2.87
2022-12-25T23:35:55.599Z,2.76
2022-12-25T23:38:22.229Z,2.79
2022-12-25T23:40:48.842Z,2.77
2022-12-25T23:43:15.373Z,2.80
2022-12-25T23:45:42.073Z,2.77
2022-12-25T23:48:08.637Z,2.77
2022-12-25T23:50:35.183Z,2.59
2022-12-25T23:53:01.698Z,2.61
2022-12-25T23:55:28.229Z,2.60
2022-12-25T23:57:54.829Z,2.51
